createdAt,value
2023-05-02T00:01:22.839Z,41.05
2023-05-02T00:03:53.747Z,41.17
2023-05-02T00:06:24.774Z,41.18
2023-05-02T00:08:55.697Z,41.41
2023-05-02T00:11:26.444Z,41.32
2023-05-02T00:13:57.348Z,41.48
2023-05-02T00:16:28.194Z,41.54
2023-05-02T00:18:58.923Z,41.68
2023-05-02T00:21:30.120Z,41.74
2023-05-02T00:24:01.278Z,41.60
2023-05-02T00:26:32.178Z,41.71
2023-05-02T00:29:02.972Z,41.80
2023-05-02T00:31:33.850Z,41.92
2023-05-02T00:34:05.039Z,41.91
2023-05-02T00:36:35.779Z,42.06
2023-05-02T00:39:07.923Z,41.99
2023-05-02T00:41:38.637Z,42.18
2023-05-02T00:44:09.651Z,41.92
2023-05-02T00:46:41.257Z,42.17
2023-05-02T00:49:12.686Z,42.17
2023-05-02T00:51:43.489Z,42.23
2023-05-02T00:54:15.414Z,42.40
2023-05-02T00:56:46.531Z,42.23
2023-05-02T00:59:18.003Z,42.39
2023-05-02T01:01:57.862Z,42.45
2023-05-02T01:04:40.064Z,42.43
2023-05-02T01:11:20.116Z,42.59
2023-05-02T01:13:52.563Z,42.58
2023-05-02T01:16:26.551Z,42.44
2023-05-02T01:24:04.249Z,42.60
2023-05-02T01:26:48.760Z,42.57
2023-05-02T01:29:31.381Z,42.69
2023-05-02T01:32:04.315Z,42.69
2023-05-02T01:34:37.446Z,42.72
2023-05-02T01:41:57.898Z,43.02
2023-05-02T01:44:31.146Z,43.10
2023-05-02T01:47:03.701Z,42.87
2023-05-02T01:49:36.876Z,42.87
2023-05-02T01:52:11.666Z,42.77
2023-05-02T01:54:43.829Z,43.05
2023-05-02T01:57:16.642Z,43.07
2023-05-02T01:59:50.912Z,43.26
2023-05-02T02:02:41.381Z,43.21
2023-05-02T02:05:14.021Z,43.27
2023-05-02T02:07:46.050Z,43.31
2023-05-02T02:10:17.889Z,43.32
2023-05-02T02:12:55.527Z,43.35
2023-05-02T02:15:33.920Z,43.62
2023-05-02T02:18:37.964Z,43.39
2023-05-02T02:21:13.503Z,43.50
2023-05-02T02:27:07.730Z,43.49
2023-05-02T02:29:38.759Z,43.51
2023-05-02T02:32:10.246Z,43.70
2023-05-02T02:34:40.960Z,43.68
2023-05-02T02:37:16.601Z,43.71
2023-05-02T02:39:57.125Z,43.76
2023-05-02T02:42:40.098Z,43.75
2023-05-02T02:45:25.894Z,43.91
2023-05-02T02:48:09.526Z,43.95
2023-05-02T02:50:54.695Z,44.17
2023-05-02T02:53:35.187Z,44.01
2023-05-02T02:56:15.101Z,44.15
2023-05-02T02:58:55.664Z,44.22
2023-05-02T03:01:29.123Z,44.33
2023-05-02T03:04:00.341Z,44.47
2023-05-02T03:06:32.592Z,44.43
2023-05-02T03:09:05.121Z,44.61
2023-05-02T03:11:36.176Z,44.59
2023-05-02T03:14:06.902Z,44.75
2023-05-02T03:16:41.660Z,44.84
2023-05-02T03:19:15.676Z,44.81
2023-05-02T03:21:46.884Z,44.90
2023-05-02T03:24:20.863Z,45.11
2023-05-02T03:26:55.486Z,44.90
2023-05-02T03:29:26.912Z,45.04
2023-05-02T03:31:57.864Z,45.05
2023-05-02T03:34:29.346Z,45.24
2023-05-02T03:37:00.599Z,45.45
2023-05-02T03:39:32.363Z,45.39
2023-05-02T03:42:03.345Z,45.58
2023-05-02T03:44:34.212Z,45.57
2023-05-02T03:47:05.061Z,45.61
2023-05-02T03:49:38.833Z,45.79
2023-05-02T03:52:10.181Z,45.83
2023-05-02T03:54:41.817Z,45.75
2023-05-02T03:57:13.271Z,45.70
2023-05-02T03:59:45.869Z,45.67
2023-05-02T04:02:19.779Z,45.76
2023-05-02T04:04:57.763Z,46.04
2023-05-02T04:07:42.616Z,45.99
2023-05-02T04:10:16.969Z,46.01
2023-05-02T04:12:58.115Z,46.12
2023-05-02T04:15:34.449Z,46.12
2023-05-02T04:18:05.802Z,45.91
2023-05-02T04:20:38.394Z,45.76
2023-05-02T04:23:14.595Z,45.94
2023-05-02T04:25:54.121Z,45.95
2023-05-02T04:28:27.951Z,45.88
2023-05-02T04:31:00.036Z,45.91
2023-05-02T04:33:31.731Z,45.85
2023-05-02T04:36:03.912Z,45.58
2023-05-02T04:38:42.545Z,45.61
2023-05-02T04:41:14.387Z,45.29
2023-05-02T04:44:04.398Z,45.27
2023-05-02T04:46:35.510Z,45.20
2023-05-02T04:49:06.673Z,45.11
2023-05-02T04:51:42.984Z,44.97
2023-05-02T04:54:14.786Z,44.68
2023-05-02T04:56:49.955Z,44.62
2023-05-02T04:59:32.617Z,44.69
2023-05-02T05:02:05.703Z,44.73
2023-05-02T05:05:02.255Z,44.54
2023-05-02T05:07:33.388Z,44.32
2023-05-02T05:10:11.363Z,44.65
2023-05-02T05:12:51.253Z,44.38
2023-05-02T05:15:26.118Z,43.98
2023-05-02T05:18:03.545Z,42.81
2023-05-02T05:20:35.766Z,41.97
2023-05-02T05:23:08.768Z,41.49
2023-05-02T05:25:40.483Z,41.44
2023-05-02T05:28:17.150Z,40.51
2023-05-02T05:30:51.834Z,40.51
2023-05-02T05:33:26.374Z,40.31
2023-05-02T05:36:01.897Z,38.58
2023-05-02T05:38:33.337Z,37.44
2023-05-02T05:41:05.254Z,36.77
2023-05-02T05:43:38.474Z,36.30
2023-05-02T05:46:11.174Z,35.92
2023-05-02T05:48:42.127Z,35.61
2023-05-02T05:51:13.319Z,34.86
2023-05-02T05:53:47.607Z,33.97
2023-05-02T05:56:19.989Z,33.59
2023-05-02T05:58:58.389Z,32.86
2023-05-02T06:01:31.534Z,33.36
2023-05-02T06:04:05.472Z,34.17
2023-05-02T06:06:38.325Z,34.79
2023-05-02T06:09:09.209Z,34.95
2023-05-02T06:11:41.312Z,33.04
2023-05-02T06:14:12.133Z,31.71
2023-05-02T06:16:44.031Z,30.89
2023-05-02T06:19:17.032Z,31.43
2023-05-02T06:21:49.340Z,32.02
2023-05-02T06:24:33.761Z,31.41
2023-05-02T06:27:04.723Z,31.01
2023-05-02T06:29:35.553Z,31.37
2023-05-02T06:32:11.311Z,31.81
2023-05-02T06:34:44.889Z,32.04
2023-05-02T06:37:15.843Z,32.15
2023-05-02T06:39:46.774Z,32.08
2023-05-02T06:42:17.498Z,31.91
2023-05-02T06:44:48.290Z,31.69
2023-05-02T06:47:19.065Z,31.40
2023-05-02T06:49:53.902Z,31.49
2023-05-02T06:52:25.019Z,31.26
2023-05-02T06:54:56.008Z,31.11
2023-05-02T06:57:26.972Z,30.43
2023-05-02T07:00:02.761Z,29.60
2023-05-02T07:02:34.139Z,29.00
2023-05-02T07:05:12.834Z,29.37
2023-05-02T07:07:43.919Z,28.49
2023-05-02T07:10:15.135Z,28.08
2023-05-02T07:12:45.951Z,28.76
2023-05-02T07:15:18.997Z,29.12
2023-05-02T07:17:50.629Z,29.34
2023-05-02T07:20:21.991Z,29.25
2023-05-02T07:22:53.479Z,28.70
2023-05-02T07:25:24.401Z,28.45
2023-05-02T07:27:55.074Z,27.92
2023-05-02T07:30:28.382Z,28.21
2023-05-02T07:32:59.339Z,27.98
2023-05-02T07:35:30.340Z,28.21
2023-05-02T07:38:01.240Z,27.72
2023-05-02T07:40:32.172Z,27.24
2023-05-02T07:43:09.868Z,26.74
2023-05-02T07:45:42.517Z,26.85
2023-05-02T07:48:13.458Z,27.40
2023-05-02T07:50:44.234Z,27.58
2023-05-02T07:53:15.529Z,27.25
2023-05-02T07:55:49.005Z,27.55
2023-05-02T07:58:19.694Z,27.86
2023-05-02T08:00:50.586Z,28.06
2023-05-02T08:03:21.779Z,28.33
2023-05-02T08:05:52.703Z,28.44
2023-05-02T08:08:23.505Z,28.67
2023-05-02T08:10:54.556Z,28.91
2023-05-02T08:13:25.233Z,28.90
2023-05-02T08:15:58.351Z,29.38
2023-05-02T08:18:29.715Z,29.60
2023-05-02T08:21:01.008Z,29.88
2023-05-02T08:23:31.816Z,29.61
2023-05-02T08:26:02.596Z,29.33
2023-05-02T08:28:33.441Z,29.01
2023-05-02T08:31:04.628Z,28.56
2023-05-02T08:33:35.373Z,28.89
2023-05-02T08:36:13.609Z,28.88
2023-05-02T08:38:45.233Z,29.63
2023-05-02T08:41:17.781Z,29.99
2023-05-02T08:43:49.498Z,29.96
2023-05-02T08:46:23.973Z,29.76
2023-05-02T08:48:59.040Z,29.92
2023-05-02T08:51:32.629Z,29.80
2023-05-02T08:54:05.086Z,30.23
2023-05-02T08:56:35.897Z,30.24
2023-05-02T08:59:08.269Z,30.10
2023-05-02T09:01:42.708Z,30.14
2023-05-02T09:04:14.790Z,30.13
2023-05-02T09:06:46.953Z,30.26
2023-05-02T09:09:19.186Z,30.18
2023-05-02T09:11:52.962Z,30.03
2023-05-02T09:14:24.087Z,29.90
2023-05-02T09:17:01.272Z,30.18
2023-05-02T09:19:32.369Z,30.47
2023-05-02T09:22:03.857Z,30.45
2023-05-02T09:24:35.009Z,30.56
2023-05-02T09:27:07.152Z,30.46
2023-05-02T09:29:39.089Z,30.34
2023-05-02T09:32:10.228Z,30.54
2023-05-02T09:34:41.624Z,30.62
2023-05-02T09:37:13.646Z,30.99
2023-05-02T09:40:04.455Z,31.00
2023-05-02T09:42:36.440Z,31.16
2023-05-02T09:45:09.362Z,31.10
2023-05-02T09:47:42.478Z,31.57
2023-05-02T09:50:13.733Z,31.88
2023-05-02T09:53:01.623Z,32.14
2023-05-02T09:55:32.874Z,32.38
2023-05-02T09:58:04.360Z,32.54
2023-05-02T10:00:46.034Z,32.62
2023-05-02T10:03:19.050Z,32.71
2023-05-02T10:05:51.046Z,32.92
2023-05-02T10:08:22.565Z,33.11
2023-05-02T10:10:56.645Z,33.42
2023-05-02T10:13:32.441Z,33.52
2023-05-02T10:16:05.962Z,33.60
2023-05-02T10:18:48.405Z,33.51
2023-05-02T10:25:23.320Z,34.12
2023-05-02T10:27:54.451Z,34.42
2023-05-02T10:30:26.757Z,34.60
2023-05-02T10:33:01.005Z,34.75
2023-05-02T10:36:10.107Z,34.74
2023-05-02T10:38:46.778Z,34.82
2023-05-02T10:42:08.234Z,34.91
2023-05-02T10:44:40.847Z,35.18
2023-05-02T10:52:30.612Z,35.44
2023-05-02T10:55:49.236Z,35.84
2023-05-02T10:58:40.101Z,36.09
2023-05-02T11:01:51.002Z,36.44
2023-05-02T11:04:44.344Z,36.74
2023-05-02T11:10:34.627Z,37.83
2023-05-02T11:13:05.397Z,38.40
2023-05-02T11:16:00.018Z,39.26
2023-05-02T11:19:02.728Z,39.79
2023-05-02T11:21:33.766Z,40.63
2023-05-02T11:24:37.084Z,41.18
2023-05-02T11:27:44.046Z,41.86
2023-05-02T11:30:48.919Z,42.33
2023-05-02T11:33:23.596Z,43.02
2023-05-02T11:35:56.943Z,43.54
2023-05-02T11:38:36.537Z,44.02
2023-05-02T11:41:07.476Z,44.59
2023-05-02T11:43:38.143Z,44.93
2023-05-02T11:46:09.304Z,45.15
2023-05-02T11:48:40.267Z,45.33
2023-05-02T11:51:10.980Z,45.35
2023-05-02T11:53:43.855Z,45.36
2023-05-02T11:56:14.774Z,45.46
2023-05-02T11:58:47.099Z,45.61
2023-05-02T12:01:18.688Z,45.53
2023-05-02T12:03:52.590Z,45.36
2023-05-02T12:06:23.613Z,45.39
2023-05-02T12:09:07.225Z,45.66
2023-05-02T12:11:38.750Z,45.50
2023-05-02T12:14:10.373Z,45.50
2023-05-02T12:16:42.605Z,45.58
2023-05-02T12:19:14.394Z,45.79
2023-05-02T12:21:45.221Z,45.30
2023-05-02T12:24:17.316Z,44.88
2023-05-02T12:26:49.052Z,44.77
2023-05-02T12:29:21.062Z,44.32
2023-05-02T12:31:55.427Z,44.26
2023-05-02T12:34:37.593Z,43.75
2023-05-02T12:37:09.564Z,43.56
2023-05-02T12:39:42.282Z,43.46
2023-05-02T12:42:16.962Z,43.13
2023-05-02T12:44:49.320Z,43.02
2023-05-02T12:47:21.457Z,43.17
2023-05-02T12:49:54.074Z,42.93
2023-05-02T12:52:48.755Z,42.43
2023-05-02T12:55:20.377Z,42.36
2023-05-02T12:57:51.461Z,42.30
2023-05-02T13:00:22.707Z,41.99
2023-05-02T13:02:54.049Z,42.04
2023-05-02T13:05:29.178Z,41.78
2023-05-02T13:08:00.365Z,41.81
2023-05-02T13:10:31.175Z,41.73
2023-05-02T13:13:02.838Z,41.76
2023-05-02T13:15:33.764Z,41.33
2023-05-02T13:18:04.694Z,41.24
2023-05-02T13:20:35.641Z,41.23
2023-05-02T13:23:06.343Z,41.52
2023-05-02T13:25:37.133Z,41.43
2023-05-02T13:28:08.341Z,41.52
2023-05-02T13:30:42.123Z,41.35
2023-05-02T13:33:13.070Z,40.99
2023-05-02T13:35:43.945Z,40.59
2023-05-02T13:38:14.864Z,40.14
2023-05-02T13:40:46.305Z,40.07
2023-05-02T13:43:17.015Z,40.10
2023-05-02T13:45:49.013Z,39.95
2023-05-02T13:48:20.155Z,39.93
2023-05-02T13:50:50.864Z,39.55
2023-05-02T13:53:21.764Z,39.13
2023-05-02T13:55:55.331Z,39.10
2023-05-02T13:58:27.497Z,39.19
2023-05-02T14:00:58.340Z,39.16
2023-05-02T14:03:29.261Z,39.08
2023-05-02T14:06:00.552Z,39.04
2023-05-02T14:08:31.512Z,38.78
2023-05-02T14:11:07.099Z,38.76
2023-05-02T14:13:38.169Z,38.72
2023-05-02T14:16:09.394Z,38.36
2023-05-02T14:18:41.884Z,38.32
2023-05-02T14:21:13.319Z,38.58
2023-05-02T14:23:44.183Z,38.61
2023-05-02T14:26:15.417Z,38.61
2023-05-02T14:28:46.471Z,38.38
2023-05-02T14:31:17.281Z,38.26
2023-05-02T14:33:48.058Z,38.27
2023-05-02T14:36:20.397Z,38.26
2023-05-02T14:38:51.912Z,38.03
2023-05-02T14:41:24.182Z,38.12
2023-05-02T14:43:57.581Z,38.01
2023-05-02T14:46:28.658Z,38.01
2023-05-02T14:49:01.506Z,38.16
2023-05-02T14:51:33.181Z,38.34
2023-05-02T14:54:04.692Z,38.06
2023-05-02T14:56:35.537Z,37.96
2023-05-02T14:59:06.311Z,38.00
2023-05-02T15:01:38.804Z,37.95
2023-05-02T15:04:10.766Z,37.97
2023-05-02T15:06:42.710Z,37.75
2023-05-02T15:09:14.106Z,37.93
2023-05-02T15:11:44.901Z,38.05
2023-05-02T15:14:15.787Z,37.94
2023-05-02T15:16:46.995Z,38.09
2023-05-02T15:19:17.820Z,37.76
2023-05-02T15:21:49.909Z,37.88
2023-05-02T15:24:20.761Z,37.95
2023-05-02T15:26:51.582Z,37.99
2023-05-02T15:29:22.307Z,37.95
2023-05-02T15:31:54.654Z,37.98
2023-05-02T15:34:25.475Z,38.01
2023-05-02T15:36:57.957Z,37.97
2023-05-02T15:39:29.019Z,37.98
2023-05-02T15:42:00.494Z,38.01
2023-05-02T15:44:31.213Z,37.99
2023-05-02T15:47:02.409Z,37.90
2023-05-02T15:49:34.586Z,37.99
2023-05-02T15:52:05.944Z,38.15
2023-05-02T15:54:37.677Z,38.16
2023-05-02T15:57:08.594Z,38.27
2023-05-02T15:59:39.554Z,38.40
2023-05-02T16:02:10.385Z,38.45
2023-05-02T16:04:43.128Z,38.54
2023-05-02T16:07:14.816Z,38.39
2023-05-02T16:09:46.405Z,38.41
2023-05-02T16:12:17.147Z,38.49
2023-05-02T16:14:47.891Z,38.50
2023-05-02T16:17:18.537Z,38.59
2023-05-02T16:19:49.283Z,38.48
2023-05-02T16:22:20.383Z,38.62
2023-05-02T16:24:51.179Z,38.79
2023-05-02T16:27:21.943Z,38.89
2023-05-02T16:29:52.861Z,38.92
2023-05-02T16:32:24.505Z,39.07
2023-05-02T16:34:56.092Z,39.07
2023-05-02T16:37:27.012Z,39.22
2023-05-02T16:39:57.873Z,39.33
2023-05-02T16:42:28.648Z,39.42
2023-05-02T16:44:59.829Z,39.54
2023-05-02T16:47:31.050Z,39.64
2023-05-02T16:50:02.744Z,39.75
2023-05-02T16:52:36.576Z,40.03
2023-05-02T16:55:08.981Z,40.18
2023-05-02T16:57:40.010Z,40.25
2023-05-02T17:00:14.936Z,40.34
2023-05-02T17:02:46.851Z,40.48
2023-05-02T17:05:20.101Z,40.57
2023-05-02T17:07:51.256Z,40.85
2023-05-02T17:10:22.090Z,40.92
2023-05-02T17:12:54.323Z,41.01
2023-05-02T17:15:25.485Z,41.14
2023-05-02T17:17:56.250Z,41.16
2023-05-02T17:20:27.033Z,41.24
2023-05-02T17:22:59.130Z,41.46
2023-05-02T17:25:29.874Z,41.44
2023-05-02T17:28:01.899Z,41.60
2023-05-02T17:30:33.760Z,41.68
2023-05-02T17:33:04.624Z,41.74
2023-05-02T17:35:35.519Z,41.96
2023-05-02T17:38:06.335Z,42.14
2023-05-02T17:40:38.216Z,42.21
2023-05-02T17:43:09.237Z,42.32
2023-05-02T17:45:41.657Z,42.37
2023-05-02T17:48:12.545Z,42.48
2023-05-02T17:50:43.855Z,42.79
2023-05-02T17:54:01.639Z,42.83
2023-05-02T17:56:34.950Z,43.09
2023-05-02T17:59:07.367Z,43.23
2023-05-02T18:01:38.322Z,43.43
2023-05-02T18:04:12.676Z,43.45
2023-05-02T18:06:43.722Z,43.53
2023-05-02T18:09:14.462Z,43.53
2023-05-02T18:11:45.185Z,43.62
2023-05-02T18:14:15.979Z,43.91
2023-05-02T18:16:48.741Z,44.01
2023-05-02T18:19:19.552Z,44.14
2023-05-02T18:21:50.377Z,44.23
2023-05-02T18:24:21.279Z,44.32
2023-05-02T18:26:52.733Z,44.38
2023-05-02T18:29:23.494Z,44.40
2023-05-02T18:31:54.324Z,44.47
2023-05-02T18:34:25.195Z,44.58
2023-05-02T18:36:56.280Z,44.72
2023-05-02T18:39:27.002Z,44.70
2023-05-02T18:41:57.765Z,44.59
2023-05-02T18:44:28.534Z,44.55
2023-05-02T18:46:59.782Z,44.54
2023-05-02T18:49:30.892Z,44.53
2023-05-02T18:52:03.067Z,44.56
2023-05-02T18:54:34.145Z,44.60
2023-05-02T18:57:05.269Z,44.63
2023-05-02T18:59:35.960Z,44.63
2023-05-02T19:02:06.744Z,44.75
2023-05-02T19:04:37.508Z,44.84
2023-05-02T19:07:08.618Z,44.82
2023-05-02T19:09:40.216Z,44.81
2023-05-02T19:12:10.991Z,44.69
2023-05-02T19:14:42.144Z,44.67
2023-05-02T19:17:12.915Z,44.72
2023-05-02T19:19:43.693Z,44.82
2023-05-02T19:22:15.066Z,45.04
2023-05-02T19:24:45.781Z,44.93
2023-05-02T19:27:16.468Z,45.00
2023-05-02T19:29:47.336Z,45.00
2023-05-02T19:32:18.604Z,45.10
2023-05-02T19:34:49.367Z,45.15
2023-05-02T19:37:20.127Z,45.23
2023-05-02T19:39:50.774Z,45.40
2023-05-02T19:42:21.442Z,45.53
2023-05-02T19:44:53.306Z,45.75
2023-05-02T19:47:24.143Z,45.97
2023-05-02T19:49:54.951Z,46.17
2023-05-02T19:52:25.623Z,46.31
2023-05-02T19:54:56.451Z,46.68
2023-05-02T19:57:27.215Z,46.83
2023-05-02T19:59:57.905Z,46.92
2023-05-02T20:02:29.068Z,47.12
2023-05-02T20:04:59.955Z,47.28
2023-05-02T20:07:31.056Z,47.52
2023-05-02T20:10:02.040Z,47.72
2023-05-02T20:12:33.061Z,47.83
2023-05-02T20:15:04.156Z,47.98
2023-05-02T20:17:34.924Z,48.14
2023-05-02T20:20:08.285Z,48.30
2023-05-02T20:22:39.869Z,48.49
2023-05-02T20:25:12.694Z,48.72
2023-05-02T20:27:43.426Z,48.89
2023-05-02T20:30:15.020Z,49.11
2023-05-02T20:32:47.327Z,49.21
2023-05-02T20:35:18.314Z,49.49
2023-05-02T20:37:49.821Z,49.55
2023-05-02T20:40:22.595Z,49.65
2023-05-02T20:42:53.303Z,49.77
2023-05-02T20:45:25.370Z,50.00
2023-05-02T20:47:57.116Z,50.15
2023-05-02T20:50:28.395Z,50.21
2023-05-02T20:52:59.468Z,50.32
2023-05-02T20:55:31.801Z,50.40
2023-05-02T20:58:02.856Z,50.49
2023-05-02T21:00:33.913Z,50.55
2023-05-02T21:03:04.791Z,50.67
2023-05-02T21:05:37.285Z,50.79
2023-05-02T21:08:08.701Z,50.94
2023-05-02T21:10:39.418Z,50.98
2023-05-02T21:13:10.123Z,51.05
2023-05-02T21:15:56.365Z,51.15
2023-05-02T21:18:27.186Z,51.25
2023-05-02T21:20:57.964Z,51.30
2023-05-02T21:23:28.744Z,51.38
2023-05-02T21:25:59.497Z,51.49
2023-05-02T21:28:30.180Z,51.44
2023-05-02T21:31:04.182Z,51.35
2023-05-02T21:33:35.837Z,51.47
2023-05-02T21:36:07.399Z,51.66
2023-05-02T21:38:38.408Z,51.84
2023-05-02T21:41:10.089Z,51.95
2023-05-02T21:43:41.607Z,51.96
2023-05-02T21:46:14.525Z,52.06
2023-05-02T21:48:45.226Z,52.19
2023-05-02T21:51:15.941Z,52.22
2023-05-02T21:53:49.551Z,52.19
2023-05-02T21:56:20.252Z,52.34
2023-05-02T21:58:51.906Z,52.46
2023-05-02T22:01:22.845Z,52.52
2023-05-02T22:03:53.777Z,52.58
2023-05-02T22:06:25.034Z,52.62
2023-05-02T22:08:57.457Z,52.64
2023-05-02T22:11:28.650Z,52.87
2023-05-02T22:13:59.416Z,52.97
2023-05-02T22:16:31.583Z,53.23
2023-05-02T22:19:02.482Z,53.20
2023-05-02T22:21:47.283Z,53.19
2023-05-02T22:24:24.152Z,53.26
2023-05-02T22:27:05.234Z,53.25
2023-05-02T22:29:36.190Z,53.31
2023-05-02T22:32:09.214Z,53.31
2023-05-02T22:34:39.953Z,53.26
2023-05-02T22:37:10.820Z,53.33
2023-05-02T22:39:41.714Z,53.28
2023-05-02T22:42:12.370Z,53.35
2023-05-02T22:44:52.923Z,53.27
2023-05-02T22:47:25.262Z,53.42
2023-05-02T22:49:56.905Z,53.41
2023-05-02T22:52:28.356Z,53.27
2023-05-02T22:54:59.150Z,53.30
2023-05-02T22:57:29.910Z,53.11
2023-05-02T23:00:00.874Z,52.92
2023-05-02T23:02:31.876Z,52.83
2023-05-02T23:05:04.225Z,52.74
2023-05-02T23:07:35.264Z,52.72
2023-05-02T23:10:06.859Z,52.85
2023-05-02T23:12:37.846Z,52.81
2023-05-02T23:15:10.560Z,52.87
2023-05-02T23:17:42.277Z,52.98
2023-05-02T23:20:13.693Z,52.96
2023-05-02T23:22:47.830Z,52.95
2023-05-02T23:25:18.627Z,52.94
2023-05-02T23:27:49.439Z,53.09
2023-05-02T23:30:20.466Z,53.24
2023-05-02T23:32:53.626Z,53.14
2023-05-02T23:35:24.738Z,53.25
2023-05-02T23:37:55.521Z,53.28
2023-05-02T23:40:26.272Z,53.43
2023-05-02T23:42:57.153Z,53.42
2023-05-02T23:45:27.843Z,53.24
2023-05-02T23:47:58.595Z,53.13
2023-05-02T23:50:29.407Z,52.96
2023-05-02T23:53:01.099Z,52.58
2023-05-02T23:55:31.964Z,52.29
2023-05-02T23:58:02.662Z,52.18
